Fentress, Virginia
Current Conditions -  °F | °C
As of 4:15 AM on Monday 22 Dec 2014 (Local Time) from KCPK Reporting Station
Drizzle Drizzle  
Wind Chill: 40°   Ceiling: 4400
Heat Index: 45°   Visibility: 7mi
Dew Point: 39°   Wind: 8mph
Humidity: 81%   Direction: 20°NNE
Pressure: 30.21"   Gusts: NA
Location:  36.6227°N, 76.2654°W
Report Text: KCPK 220915Z AUTO 02007KT 7SM -DZ OVC044 07/04 A3021 RMK AO2
Loading
Personal Weather Stations






























Interactive Weather Map New forecast layout! Learn more

10-Day Weather Forecast

Advertisements
Track Severe Weather on mobile